createdAt,value
2023-06-17T00:00:42.186Z,59.71
2023-06-17T00:03:09.606Z,59.50
2023-06-17T00:05:39.119Z,58.89
2023-06-17T00:08:05.997Z,58.07
2023-06-17T00:10:33.545Z,57.80
2023-06-17T00:13:01.000Z,57.66
2023-06-17T00:15:29.481Z,57.81
2023-06-17T00:17:57.146Z,57.80
2023-06-17T00:20:24.073Z,58.09
2023-06-17T00:22:56.050Z,58.42
2023-06-17T00:37:06.202Z,58.33
2023-06-17T00:39:33.576Z,57.14
2023-06-17T00:42:01.516Z,57.30
2023-06-17T00:44:29.018Z,57.52
2023-06-17T00:46:56.583Z,57.46
2023-06-17T00:49:28.126Z,57.74
2023-06-17T00:52:15.074Z,57.88
2023-06-17T00:54:44.088Z,58.23
2023-06-17T00:57:14.854Z,58.57
2023-06-17T00:59:44.945Z,58.98
2023-06-17T01:02:13.026Z,59.05
2023-06-17T01:04:44.062Z,59.23
2023-06-17T01:07:24.628Z,59.33
2023-06-17T01:09:57.505Z,59.36
2023-06-17T01:12:27.182Z,59.26
2023-06-17T01:14:55.803Z,59.42
2023-06-17T01:17:23.406Z,59.31
2023-06-17T01:19:50.827Z,59.27
2023-06-17T01:22:19.102Z,59.06
2023-06-17T01:24:50.550Z,59.12
2023-06-17T01:27:21.264Z,59.24
2023-06-17T01:29:50.486Z,59.21
2023-06-17T01:32:18.225Z,59.32
2023-06-17T01:35:02.122Z,59.47
2023-06-17T01:37:51.872Z,59.37
2023-06-17T01:40:20.966Z,59.18
2023-06-17T01:42:49.991Z,59.36
2023-06-17T01:45:17.566Z,59.78
2023-06-17T01:47:44.968Z,60.07
2023-06-17T01:50:12.887Z,60.13
2023-06-17T01:52:40.611Z,60.00
2023-06-17T01:55:09.136Z,60.16
2023-06-17T01:57:36.654Z,60.18
2023-06-17T02:00:05.657Z,60.30
2023-06-17T02:02:33.149Z,60.30
2023-06-17T02:05:02.378Z,60.37
2023-06-17T02:07:29.967Z,60.52
2023-06-17T02:09:57.523Z,60.68
2023-06-17T02:12:26.237Z,60.74
2023-06-17T02:14:53.875Z,60.88
2023-06-17T02:17:21.538Z,60.96
2023-06-17T02:19:48.994Z,61.01
2023-06-17T02:22:16.555Z,61.23
2023-06-17T02:24:44.124Z,61.20
2023-06-17T02:27:12.115Z,61.12
2023-06-17T02:29:39.748Z,61.14
2023-06-17T02:32:10.558Z,61.53
2023-06-17T02:34:40.002Z,61.50
2023-06-17T02:37:08.810Z,61.51
2023-06-17T02:39:37.263Z,61.45
2023-06-17T02:42:05.398Z,61.55
2023-06-17T02:44:32.994Z,61.56
2023-06-17T02:47:00.852Z,62.06
2023-06-17T02:49:28.734Z,62.32
2023-06-17T02:51:56.194Z,62.37
2023-06-17T02:54:23.646Z,62.67
2023-06-17T02:56:51.059Z,62.86
2023-06-17T02:59:19.123Z,63.07
2023-06-17T03:01:47.391Z,63.15
2023-06-17T03:04:15.520Z,63.20
2023-06-17T03:06:43.108Z,63.25
2023-06-17T03:09:10.952Z,62.76
2023-06-17T03:11:38.817Z,62.56
2023-06-17T03:14:06.992Z,62.28
2023-06-17T03:16:35.640Z,62.31
2023-06-17T03:19:03.554Z,62.20
2023-06-17T03:21:33.916Z,62.11
2023-06-17T03:24:02.596Z,62.14
2023-06-17T03:26:31.188Z,62.05
2023-06-17T03:28:59.222Z,61.88
2023-06-17T03:31:26.792Z,61.52
2023-06-17T03:33:54.555Z,61.17
2023-06-17T03:36:31.058Z,60.83
2023-06-17T03:38:58.780Z,60.88
2023-06-17T03:41:27.577Z,60.86
2023-06-17T03:43:55.053Z,60.67
2023-06-17T03:46:22.804Z,60.84
2023-06-17T03:48:50.350Z,60.16
2023-06-17T03:51:18.835Z,59.48
2023-06-17T03:53:46.496Z,58.44
2023-06-17T03:56:14.981Z,58.27
2023-06-17T03:58:42.536Z,58.08
2023-06-17T04:01:14.098Z,57.29
2023-06-17T04:03:43.261Z,56.28
2023-06-17T04:06:13.201Z,56.27
2023-06-17T04:08:43.137Z,56.17
2023-06-17T04:11:10.864Z,56.28
2023-06-17T04:13:38.461Z,55.89
2023-06-17T04:16:06.719Z,56.14
2023-06-17T04:18:34.528Z,56.34
2023-06-17T04:21:03.087Z,56.20
2023-06-17T04:23:32.479Z,55.61
2023-06-17T04:26:01.960Z,55.41
2023-06-17T04:28:33.467Z,55.45
2023-06-17T04:31:02.592Z,55.28
2023-06-17T04:33:39.203Z,54.32
2023-06-17T04:36:10.358Z,53.67
2023-06-17T04:38:43.329Z,53.23
2023-06-17T04:41:11.435Z,52.98
2023-06-17T04:43:39.194Z,53.06
2023-06-17T04:46:10.164Z,53.20
2023-06-17T04:48:38.886Z,53.16
2023-06-17T04:51:07.313Z,52.84
2023-06-17T04:53:35.246Z,53.01
2023-06-17T04:56:05.867Z,52.89
2023-06-17T04:58:34.566Z,52.94
2023-06-17T05:01:10.834Z,52.79
2023-06-17T05:03:38.544Z,52.79
2023-06-17T05:06:06.307Z,53.03
2023-06-17T05:08:33.859Z,53.15
2023-06-17T05:11:01.604Z,53.02
2023-06-17T05:13:30.074Z,52.50
2023-06-17T05:15:58.878Z,52.14
2023-06-17T05:18:27.637Z,52.01
2023-06-17T05:20:55.206Z,51.93
2023-06-17T05:23:22.964Z,51.53
2023-06-17T05:25:51.182Z,50.70
2023-06-17T05:28:19.520Z,50.28
2023-06-17T05:30:47.563Z,49.78
2023-06-17T05:33:17.227Z,49.38
2023-06-17T05:35:45.057Z,49.42
2023-06-17T05:38:13.445Z,49.71
2023-06-17T05:40:41.517Z,49.84
2023-06-17T05:43:09.111Z,49.92
2023-06-17T05:45:36.560Z,49.74
2023-06-17T05:48:04.505Z,49.34
2023-06-17T05:50:32.209Z,48.82
2023-06-17T05:53:01.483Z,48.54
2023-06-17T05:55:28.960Z,48.64
2023-06-17T05:57:56.994Z,48.88
2023-06-17T06:00:25.010Z,48.51
2023-06-17T06:02:54.064Z,48.20
2023-06-17T06:05:21.590Z,48.12
2023-06-17T06:07:49.086Z,47.76
2023-06-17T06:10:16.861Z,47.61
2023-06-17T06:12:47.314Z,47.42
2023-06-17T06:15:15.040Z,47.16
2023-06-17T06:17:42.441Z,47.08
2023-06-17T06:20:10.881Z,47.12
2023-06-17T06:22:39.171Z,46.93
2023-06-17T06:25:07.194Z,47.09
2023-06-17T06:27:35.029Z,46.77
2023-06-17T06:30:03.384Z,46.58
2023-06-17T06:32:31.095Z,46.41
2023-06-17T06:34:59.225Z,46.47
2023-06-17T06:37:27.899Z,46.58
2023-06-17T06:39:55.469Z,46.71
2023-06-17T06:42:23.453Z,46.57
2023-06-17T06:44:53.451Z,45.92
2023-06-17T06:47:22.169Z,44.85
2023-06-17T06:49:50.323Z,44.78
2023-06-17T06:52:17.789Z,44.49
2023-06-17T06:54:45.524Z,44.56
2023-06-17T06:57:13.193Z,44.51
2023-06-17T06:59:41.390Z,44.08
2023-06-17T07:02:09.025Z,43.63
2023-06-17T07:04:36.842Z,43.76
2023-06-17T07:07:05.473Z,44.00
2023-06-17T07:09:36.363Z,43.54
2023-06-17T07:12:04.332Z,42.56
2023-06-17T07:14:32.301Z,42.14
2023-06-17T07:17:01.057Z,41.86
2023-06-17T07:19:28.674Z,41.62
2023-06-17T07:21:56.315Z,41.76
2023-06-17T07:24:24.127Z,42.20
2023-06-17T07:26:51.793Z,41.70
2023-06-17T07:29:21.909Z,41.49
2023-06-17T07:31:49.454Z,40.92
2023-06-17T07:34:16.942Z,40.25
2023-06-17T07:36:44.541Z,40.17
2023-06-17T07:39:13.683Z,39.85
2023-06-17T07:41:41.244Z,39.98
2023-06-17T07:44:08.744Z,39.62
2023-06-17T07:46:36.185Z,39.12
2023-06-17T07:49:03.893Z,39.31
2023-06-17T07:51:32.205Z,39.16
2023-06-17T07:53:59.668Z,38.81
2023-06-17T07:56:28.872Z,37.71
2023-06-17T07:58:57.266Z,36.93
2023-06-17T08:01:24.827Z,37.11
2023-06-17T08:03:52.596Z,37.54
2023-06-17T08:06:20.330Z,36.63
2023-06-17T08:08:48.029Z,35.76
2023-06-17T08:11:15.379Z,36.06
2023-06-17T08:13:42.904Z,36.42
2023-06-17T08:16:10.260Z,36.30
2023-06-17T08:18:37.678Z,35.36
2023-06-17T08:21:05.323Z,35.33
2023-06-17T08:23:33.096Z,35.73
2023-06-17T08:26:00.605Z,35.97
2023-06-17T08:28:28.684Z,34.51
2023-06-17T08:30:56.279Z,33.89
2023-06-17T08:33:23.903Z,34.05
2023-06-17T08:35:51.462Z,34.37
2023-06-17T08:38:18.811Z,34.23
2023-06-17T08:40:47.002Z,34.39
2023-06-17T08:43:19.486Z,34.32
2023-06-17T08:45:52.893Z,33.93
2023-06-17T08:48:20.740Z,32.75
2023-06-17T08:50:50.449Z,32.16
2023-06-17T08:53:18.324Z,32.57
2023-06-17T08:55:45.880Z,33.51
2023-06-17T08:58:13.310Z,33.23
2023-06-17T09:00:40.863Z,32.89
2023-06-17T09:03:09.513Z,32.93
2023-06-17T09:05:37.439Z,32.70
2023-06-17T09:08:05.198Z,33.25
2023-06-17T09:10:43.424Z,33.86
2023-06-17T09:13:12.054Z,33.73
2023-06-17T09:15:41.202Z,32.58
2023-06-17T09:18:09.485Z,32.06
2023-06-17T09:20:37.087Z,32.23
2023-06-17T09:23:05.317Z,31.99
2023-06-17T09:25:35.078Z,32.76
2023-06-17T09:28:15.969Z,31.95
2023-06-17T09:30:45.215Z,31.25
2023-06-17T09:33:20.523Z,31.19
2023-06-17T09:35:48.963Z,31.83
2023-06-17T09:38:18.700Z,31.74
2023-06-17T09:40:48.790Z,31.32
2023-06-17T09:43:27.466Z,30.72
2023-06-17T09:45:57.227Z,31.60
2023-06-17T09:48:26.241Z,31.93
2023-06-17T09:50:57.264Z,31.11
2023-06-17T09:53:28.705Z,31.08
2023-06-17T09:55:58.664Z,30.64
2023-06-17T09:58:32.009Z,30.30
2023-06-17T10:01:02.125Z,30.78
2023-06-17T10:03:30.093Z,31.06
2023-06-17T10:06:04.598Z,30.75
2023-06-17T10:08:32.376Z,30.88
2023-06-17T10:11:01.252Z,31.14
2023-06-17T10:13:30.658Z,31.37
2023-06-17T10:15:58.218Z,31.86
2023-06-17T10:18:25.885Z,31.34
2023-06-17T10:20:53.299Z,31.42
2023-06-17T10:23:22.007Z,32.03
2023-06-17T10:25:49.432Z,32.82
2023-06-17T10:28:17.397Z,32.74
2023-06-17T10:30:45.523Z,32.45
2023-06-17T10:33:13.148Z,31.90
2023-06-17T10:35:45.524Z,31.44
2023-06-17T10:38:29.517Z,31.25
2023-06-17T10:40:58.295Z,30.65
2023-06-17T10:43:25.990Z,30.70
2023-06-17T10:45:57.346Z,30.67
2023-06-17T10:48:34.536Z,30.06
2023-06-17T10:51:12.089Z,30.05
2023-06-17T10:53:43.220Z,29.94
2023-06-17T10:56:11.521Z,29.96
2023-06-17T10:58:45.409Z,29.84
2023-06-17T11:01:13.105Z,29.71
2023-06-17T11:03:41.591Z,29.70
2023-06-17T11:06:10.439Z,29.54
2023-06-17T11:08:38.331Z,29.55
2023-06-17T11:11:13.748Z,29.12
2023-06-17T11:13:45.837Z,29.72
2023-06-17T11:16:13.291Z,29.30
2023-06-17T11:18:44.539Z,28.92
2023-06-17T11:21:12.107Z,27.95
2023-06-17T11:23:40.166Z,27.26
2023-06-17T11:26:08.578Z,28.37
2023-06-17T11:28:37.097Z,28.42
2023-06-17T11:31:05.065Z,28.65
2023-06-17T11:33:35.520Z,28.18
2023-06-17T11:36:05.072Z,28.73
2023-06-17T11:38:32.601Z,28.36
2023-06-17T11:41:00.193Z,28.22
2023-06-17T11:43:28.024Z,28.17
2023-06-17T11:45:59.551Z,28.09
2023-06-17T11:48:30.875Z,28.35
2023-06-17T11:50:58.381Z,28.65
2023-06-17T11:53:37.908Z,28.42
2023-06-17T11:56:06.994Z,27.61
2023-06-17T11:58:39.909Z,26.88
2023-06-17T12:01:08.235Z,26.52
2023-06-17T12:03:36.270Z,27.02
2023-06-17T12:06:04.434Z,27.91
2023-06-17T12:08:38.743Z,27.20
2023-06-17T12:11:29.114Z,26.23
2023-06-17T12:13:56.805Z,25.96
2023-06-17T12:16:37.787Z,26.20
2023-06-17T12:19:10.416Z,25.86
2023-06-17T12:21:37.986Z,26.25
2023-06-17T12:24:05.616Z,25.96
2023-06-17T12:26:33.042Z,25.89
2023-06-17T12:29:03.018Z,25.92
2023-06-17T12:31:33.500Z,26.32
2023-06-17T12:34:00.947Z,26.23
2023-06-17T12:36:28.925Z,26.55
2023-06-17T12:38:56.375Z,26.68
2023-06-17T12:44:13.918Z,27.66
2023-06-17T12:46:42.661Z,27.25
2023-06-17T12:49:10.430Z,27.41
2023-06-17T12:51:37.923Z,27.61
2023-06-17T12:54:06.413Z,26.98
2023-06-17T12:56:33.872Z,26.61
2023-06-17T12:59:02.334Z,26.12
2023-06-17T13:01:30.472Z,25.66
2023-06-17T13:03:58.881Z,25.46
2023-06-17T13:06:27.487Z,26.34
2023-06-17T13:08:55.658Z,27.10
2023-06-17T13:11:23.286Z,27.02
2023-06-17T13:13:51.670Z,26.40
2023-06-17T13:16:19.219Z,26.22
2023-06-17T13:18:46.717Z,25.96
2023-06-17T13:21:14.098Z,25.49
2023-06-17T13:23:41.734Z,25.30
2023-06-17T13:26:09.395Z,25.23
2023-06-17T13:28:38.391Z,24.73
2023-06-17T13:31:05.755Z,25.00
2023-06-17T13:33:34.024Z,24.69
2023-06-17T13:36:01.725Z,25.23
2023-06-17T13:38:29.249Z,25.05
2023-06-17T13:40:56.702Z,24.80
2023-06-17T13:43:24.195Z,25.17
2023-06-17T13:45:51.783Z,24.92
2023-06-17T13:48:20.410Z,25.02
2023-06-17T13:50:48.276Z,24.12
2023-06-17T13:53:15.816Z,23.94
2023-06-17T13:55:43.712Z,23.49
2023-06-17T13:58:11.576Z,23.62
2023-06-17T14:00:39.086Z,23.59
2023-06-17T14:03:06.532Z,23.90
2023-06-17T14:05:34.480Z,24.22
2023-06-17T14:08:02.538Z,23.98
2023-06-17T14:10:30.018Z,23.25
2023-06-17T14:12:57.595Z,21.88
2023-06-17T14:15:24.950Z,20.82
2023-06-17T14:17:52.350Z,19.87
2023-06-17T14:20:20.524Z,18.86
2023-06-17T14:22:59.554Z,17.89
2023-06-17T14:25:27.543Z,17.44
2023-06-17T14:27:55.099Z,17.38
2023-06-17T14:30:22.953Z,17.57
2023-06-17T14:32:50.889Z,16.95
2023-06-17T14:35:18.865Z,16.13
2023-06-17T14:37:48.723Z,14.99
2023-06-17T14:40:17.012Z,14.30
2023-06-17T14:42:44.558Z,14.12
2023-06-17T14:45:13.458Z,13.56
2023-06-17T14:47:41.266Z,13.28
2023-06-17T14:50:10.108Z,12.50
2023-06-17T14:52:37.562Z,12.79
2023-06-17T14:55:05.472Z,13.55
2023-06-17T14:57:33.820Z,14.08
2023-06-17T15:00:01.651Z,13.65
2023-06-17T15:02:56.240Z,13.46
2023-06-17T15:05:27.117Z,13.60
2023-06-17T15:07:54.608Z,13.19
2023-06-17T15:10:22.781Z,13.18
2023-06-17T15:12:50.877Z,13.03
2023-06-17T15:15:18.758Z,13.19
2023-06-17T15:17:46.499Z,12.78
2023-06-17T15:20:13.943Z,12.55
2023-06-17T15:22:42.276Z,12.66
2023-06-17T15:25:10.367Z,12.55
2023-06-17T15:27:37.910Z,12.38
2023-06-17T15:30:06.305Z,12.24
2023-06-17T15:32:33.730Z,12.68
2023-06-17T15:35:01.411Z,12.66
2023-06-17T15:37:33.302Z,12.65
2023-06-17T15:40:02.115Z,12.82
2023-06-17T15:42:29.769Z,12.66
2023-06-17T15:44:57.393Z,12.73
2023-06-17T15:47:24.866Z,12.47
2023-06-17T15:49:52.319Z,12.22
2023-06-17T15:52:24.482Z,12.38
2023-06-17T15:54:55.002Z,12.43
2023-06-17T15:57:23.546Z,12.75
2023-06-17T15:59:51.486Z,12.77
2023-06-17T16:02:19.225Z,12.86
2023-06-17T16:04:49.962Z,13.17
2023-06-17T16:07:17.617Z,13.72
2023-06-17T16:09:49.186Z,14.05
2023-06-17T16:12:17.393Z,14.47
2023-06-17T16:14:45.448Z,15.46
2023-06-17T16:17:13.103Z,16.06
2023-06-17T16:19:40.786Z,16.47
2023-06-17T16:22:11.889Z,16.92
2023-06-17T16:24:40.290Z,17.97
2023-06-17T16:27:07.861Z,18.72
2023-06-17T16:29:35.574Z,19.14
2023-06-17T16:32:03.247Z,19.65
2023-06-17T16:34:30.918Z,20.25
2023-06-17T16:36:58.293Z,20.55
2023-06-17T16:39:26.144Z,20.84
2023-06-17T16:41:53.807Z,20.78
2023-06-17T16:44:21.707Z,21.08
2023-06-17T16:46:49.343Z,21.45
2023-06-17T16:49:17.107Z,21.95
2023-06-17T16:51:45.033Z,22.31
2023-06-17T16:54:12.587Z,22.98
2023-06-17T16:56:40.045Z,23.63
2023-06-17T16:59:07.618Z,24.24
2023-06-17T17:01:35.138Z,24.84
2023-06-17T17:04:08.633Z,25.38
2023-06-17T17:06:36.363Z,25.85
2023-06-17T17:09:04.803Z,26.09
2023-06-17T17:11:32.621Z,26.55
2023-06-17T17:14:00.173Z,27.35
2023-06-17T17:16:28.192Z,28.74
2023-06-17T17:18:55.672Z,30.28
2023-06-17T17:21:23.255Z,30.44
2023-06-17T17:23:50.893Z,29.62
2023-06-17T17:26:18.483Z,30.22
2023-06-17T17:28:46.349Z,30.63
2023-06-17T17:31:13.761Z,30.81
2023-06-17T17:33:42.083Z,30.97
2023-06-17T17:36:12.000Z,30.47
2023-06-17T17:38:39.462Z,30.21
2023-06-17T17:41:07.017Z,30.26
2023-06-17T17:43:34.578Z,30.40
2023-06-17T17:46:04.191Z,30.65
2023-06-17T17:48:31.711Z,31.05
2023-06-17T17:50:59.126Z,31.51
2023-06-17T17:53:26.775Z,32.21
2023-06-17T17:55:54.224Z,33.00
2023-06-17T17:58:21.838Z,33.90
2023-06-17T18:00:49.450Z,34.52
2023-06-17T18:03:17.315Z,35.13
2023-06-17T18:05:45.402Z,35.46
2023-06-17T18:08:12.844Z,35.85
2023-06-17T18:10:40.415Z,36.60
2023-06-17T18:13:07.801Z,37.07
2023-06-17T18:15:35.331Z,37.32
2023-06-17T18:18:02.844Z,37.39
2023-06-17T18:20:30.266Z,37.65
2023-06-17T18:22:57.799Z,37.95
2023-06-17T18:25:25.360Z,38.11
2023-06-17T18:27:53.022Z,38.89
2023-06-17T18:30:20.814Z,39.64
2023-06-17T18:32:48.409Z,40.04
2023-06-17T18:35:15.990Z,40.55
2023-06-17T18:37:43.572Z,41.40
2023-06-17T18:40:11.673Z,42.17
2023-06-17T18:42:39.204Z,42.71
2023-06-17T18:45:09.910Z,43.15
2023-06-17T18:47:38.224Z,43.05
2023-06-17T18:50:07.483Z,42.35
2023-06-17T18:52:35.174Z,41.78
2023-06-17T18:55:03.056Z,41.94
2023-06-17T18:57:30.923Z,42.55
2023-06-17T18:59:58.360Z,43.10
2023-06-17T19:02:28.345Z,43.36
2023-06-17T19:04:57.168Z,43.91
2023-06-17T19:07:24.734Z,44.21
2023-06-17T19:09:52.202Z,44.35
2023-06-17T19:12:19.803Z,44.63
2023-06-17T19:14:47.312Z,44.85
2023-06-17T19:17:15.018Z,44.67
2023-06-17T19:19:42.740Z,44.68
2023-06-17T19:22:10.311Z,45.16
2023-06-17T19:24:37.820Z,45.50
2023-06-17T19:27:05.736Z,45.38
2023-06-17T19:29:33.293Z,45.17
2023-06-17T19:32:00.956Z,45.25
2023-06-17T19:34:28.820Z,45.30
2023-06-17T19:36:56.274Z,45.52
2023-06-17T19:39:23.834Z,46.32
2023-06-17T19:41:51.393Z,46.78
2023-06-17T19:44:18.829Z,47.20
2023-06-17T19:46:46.386Z,47.39
2023-06-17T19:49:13.974Z,47.60
2023-06-17T19:51:41.538Z,47.47
2023-06-17T19:54:09.029Z,47.38
2023-06-17T19:56:37.066Z,47.40
2023-06-17T19:59:04.479Z,47.31
2023-06-17T20:01:32.652Z,47.17
2023-06-17T20:04:00.190Z,47.10
2023-06-17T20:06:27.816Z,46.88
2023-06-17T20:08:55.383Z,46.64
2023-06-17T20:11:26.959Z,46.75
2023-06-17T20:13:54.497Z,47.09
2023-06-17T20:16:22.428Z,47.18
2023-06-17T20:18:50.035Z,46.61
2023-06-17T20:21:17.475Z,45.87
2023-06-17T20:23:44.859Z,45.74
2023-06-17T20:26:12.823Z,45.44
2023-06-17T20:28:40.271Z,45.08
2023-06-17T20:31:09.252Z,45.52
2023-06-17T20:33:38.899Z,46.26
2023-06-17T20:36:06.673Z,46.65
2023-06-17T20:38:34.190Z,46.81
2023-06-17T20:41:01.880Z,46.66
2023-06-17T20:43:29.305Z,46.97
2023-06-17T20:45:57.236Z,47.35
2023-06-17T20:48:24.777Z,47.72
2023-06-17T20:50:52.305Z,47.79
2023-06-17T20:53:19.659Z,47.93
2023-06-17T20:55:47.210Z,47.94
2023-06-17T20:58:14.668Z,47.94
2023-06-17T21:00:42.092Z,47.61
2023-06-17T21:03:11.789Z,47.49
2023-06-17T21:05:39.293Z,46.93
2023-06-17T21:08:06.828Z,46.54
2023-06-17T21:10:34.316Z,46.53
2023-06-17T21:13:01.733Z,46.94
2023-06-17T21:15:29.152Z,47.84
2023-06-17T21:17:56.877Z,48.83
2023-06-17T21:20:24.678Z,49.25
2023-06-17T21:22:52.242Z,49.69
2023-06-17T21:25:19.778Z,50.65
2023-06-17T21:27:47.337Z,50.42
2023-06-17T21:30:16.032Z,49.67
2023-06-17T21:32:43.441Z,49.84
2023-06-17T21:35:11.082Z,50.58
2023-06-17T21:37:38.515Z,50.86
2023-06-17T21:40:06.984Z,51.43
2023-06-17T21:42:34.552Z,51.44
2023-06-17T21:45:01.899Z,51.21
2023-06-17T21:47:29.575Z,51.26
2023-06-17T21:49:57.128Z,51.44
2023-06-17T21:52:24.739Z,51.75
2023-06-17T21:54:52.133Z,51.53
2023-06-17T21:57:21.032Z,51.46
2023-06-17T21:59:48.359Z,51.70
2023-06-17T22:02:16.179Z,50.44
2023-06-17T22:04:43.740Z,50.20
2023-06-17T22:07:11.146Z,50.13
2023-06-17T22:09:38.710Z,50.17
2023-06-17T22:12:07.186Z,50.52
2023-06-17T22:14:34.675Z,50.19
2023-06-17T22:17:02.530Z,50.24
2023-06-17T22:19:29.903Z,50.63
2023-06-17T22:21:57.550Z,50.87
2023-06-17T22:24:25.150Z,50.68
2023-06-17T22:26:52.628Z,50.77
2023-06-17T22:29:20.233Z,50.65
2023-06-17T22:31:47.696Z,50.21
2023-06-17T22:34:15.251Z,50.10
2023-06-17T22:36:42.755Z,50.17
2023-06-17T22:39:10.374Z,50.00
2023-06-17T22:41:37.939Z,49.93
2023-06-17T22:44:05.638Z,50.17
2023-06-17T22:46:33.212Z,50.04
2023-06-17T22:49:00.859Z,49.53
2023-06-17T22:51:28.214Z,48.90
2023-06-17T22:53:55.836Z,48.69
2023-06-17T22:56:23.296Z,48.87
2023-06-17T22:58:50.956Z,49.27
2023-06-17T23:01:18.676Z,49.24
2023-06-17T23:03:46.383Z,48.67
2023-06-17T23:06:13.943Z,48.80
2023-06-17T23:08:42.320Z,48.53
2023-06-17T23:11:09.986Z,48.27
2023-06-17T23:13:37.849Z,48.23
2023-06-17T23:16:05.867Z,48.28
2023-06-17T23:18:33.302Z,47.92
2023-06-17T23:21:00.939Z,48.13
2023-06-17T23:23:28.795Z,48.20
2023-06-17T23:25:57.520Z,48.44
2023-06-17T23:28:25.954Z,48.08
2023-06-17T23:30:53.636Z,47.91
2023-06-17T23:33:21.073Z,48.51
2023-06-17T23:35:48.559Z,48.55
2023-06-17T23:38:16.355Z,48.45
2023-06-17T23:40:43.981Z,48.14
2023-06-17T23:43:11.643Z,48.49
2023-06-17T23:45:39.362Z,49.23
2023-06-17T23:48:07.027Z,49.76
2023-06-17T23:50:34.564Z,50.33
2023-06-17T23:53:01.956Z,50.85
2023-06-17T23:55:29.295Z,51.63
2023-06-17T23:57:56.702Z,51.56
